Latest Weather Observations for Beaudesert AWS

IDQ60901

Issued at 9:35 pm EST Wednesday 17 September 2014 (issued every 10 minutes, with the page automatically refreshed every 10 minutes)

About weather observations | Map of Brisbane area stations | Latest observations for Brisbane area | Other Formats
Station Details ID: 040983 Name: BEAUDESERT DRUMLEY STREET Lat: -27.97 Lon: 152.99 Height: 47.81 m
Data from the previous 72 hours. | See also: Recent months at Beaudesert AWS
Date/Time
EST
Tmp

°C
App
Tmp
°C
Dew
Point
°C
Rel
Hum
%
Delta-T

°C
Wind Press
QNH
hPa
Press
MSL
hPa
Rain
since
9 am
mm
Dir
 
Spd
km/h
Gust
km/h
Spd
kts
Gust
kts
17/09:30pm 15.4 13.6 3.2 44 5.5 SE 2 4 1 2 1015.1 1015.0 0.0
17/09:00pm 16.3 14.7 2.3 39 6.3 CALM 0 0 0 0 1014.8 1014.7 0.0
17/08:30pm 16.5 14.7 1.0 35 6.8 CALM 0 4 0 2 1014.4 1014.3 0.0
17/08:00pm 18.0 16.2 1.1 32 7.5 CALM 0 0 0 0 1014.1 1014.0 0.0
17/07:30pm 19.0 16.4 1.1 30 8.0 WSW 4 7 2 4 1013.6 1013.5 0.0
17/07:00pm 20.3 17.0 0.2 26 9.0 WSW 7 9 4 5 1013.3 1013.2 0.0
17/06:30pm 21.5 17.9 0.7 25 9.5 WSW 9 11 5 6 1012.8 1012.7 0.0
17/06:00pm 22.4 18.5 0.9 24 9.9 WSW 11 19 6 10 1012.2 1012.1 0.0
17/05:30pm 24.5 19.8 0.8 21 11.0 W 15 24 8 13 1011.6 1011.5 0.0
17/05:00pm 25.7 21.4 1.1 20 11.6 W 13 22 7 12 1011.3 1011.2 0.0
17/04:30pm 26.5 20.8 0.3 18 12.3 W 20 32 11 17 1010.9 1010.8 0.0
17/04:00pm 27.1 22.0 0.8 18 12.5 W 17 28 9 15 1010.8 1010.7 0.0
17/03:30pm 27.0 20.9 0.7 18 12.5 W 22 39 12 21 1010.7 1010.6 0.0
17/03:00pm 27.2 21.7 1.6 19 12.4 WNW 20 35 11 19 1010.7 1010.6 0.0
17/02:30pm 27.1 22.5 1.5 19 12.3 WNW 15 30 8 16 1010.8 1010.7 0.0
17/02:00pm 26.8 21.7 0.5 18 12.4 WNW 17 30 9 16 1011.1 1011.0 0.0
17/01:30pm 26.7 22.5 1.9 20 12.0 WNW 13 24 7 13 1011.5 1011.4 0.0
17/01:00pm 26.6 22.5 2.5 21 11.8 NW 13 24 7 13 1011.9 1011.8 0.0
17/12:30pm 26.0 22.5 3.3 23 11.2 W 11 22 6 12 1012.4 1012.3 0.0
17/12:00pm 25.3 21.0 3.3 24 10.8 W 15 22 8 12 1013.0 1012.9 0.0
17/11:30am 25.2 21.6 4.9 27 10.3 NW 13 24 7 13 1013.5 1013.4 0.0
17/11:00am 24.8 20.0 4.5 27 10.1 W 19 28 10 15 1014.2 1014.1 0.0
17/10:30am 24.5 19.8 3.2 25 10.4 W 17 24 9 13 1014.9 1014.8 0.0
17/10:00am 23.7 18.5 3.6 27 9.8 W 20 30 11 16 1015.1 1015.0 0.0
17/09:30am 20.5 22.2 15.1 71 3.2 CALM 0 2 0 1 1015.5 1015.4 0.0
17/09:00am 16.9 18.0 14.7 87 1.3 SW 2 6 1 3 1015.7 1015.6 0.2
17/08:30am 14.5 14.8 13.5 94 0.6 SW 4 6 2 3 1015.8 1015.7 0.2
17/08:00am 13.3 14.1 12.5 95 0.4 S 0 4 0 2 1015.8 1015.7 0.2
17/07:30am 11.8 12.1 10.9 94 0.5 CALM 0 0 0 0 1015.8 1015.7 0.2
17/07:00am 11.0 11.1 10.1 94 0.5 CALM 0 0 0 0 1015.4 1015.3 0.2
17/06:30am 10.7 10.7 9.8 94 0.5 CALM 0 0 0 0 1014.8 1014.7 0.2
17/06:00am 10.6 10.6 9.7 94 0.5 SSW 0 0 0 0 1014.4 1014.3 0.2
17/05:30am 10.3 10.2 9.4 94 0.4 CALM 0 0 0 0 1014.0 1013.9 0.2
17/05:00am 10.4 10.3 9.5 94 0.5 CALM 0 0 0 0 1013.6 1013.5 0.2
17/04:30am 9.0 8.5 7.8 92 0.6 CALM 0 0 0 0 1013.5 1013.4 0.2
17/04:00am 10.4 10.3 9.5 94 0.5 CALM 0 0 0 0 1013.3 1013.2 0.2
17/03:30am 11.2 11.3 10.3 94 0.5 CALM 0 0 0 0 1013.1 1013.0 0.2
17/03:00am 11.1 11.2 10.0 93 0.6 CALM 0 0 0 0 1012.8 1012.7 0.2
17/02:30am 11.2 11.3 10.0 92 0.6 CALM 0 0 0 0 1012.6 1012.5 0.2
17/02:00am 11.4 11.4 9.7 89 0.9 CALM 0 0 0 0 1012.9 1012.8 0.2
17/01:30am 13.1 13.7 11.8 92 0.7 CALM 0 0 0 0 1013.0 1012.9 0.2
17/01:00am 13.7 14.5 12.6 93 0.6 CALM 0 0 0 0 1013.2 1013.1 0.2
17/12:30am 13.2 13.8 11.9 92 0.7 CALM 0 0 0 0 1013.3 1013.2 0.2
17/12:00am 12.4 12.7 10.8 90 0.8 SSW 0 0 0 0 1013.2 1013.1 0.2
 
Date/Time
EST
Tmp

°C
App
Tmp
°C
Dew
Point
°C
Rel
Hum
%
Delta-T

°C
Wind Press
QNH
hPa
Press
MSL
hPa
Rain
since
9 am
mm
Dir
 
Spd
km/h
Gust
km/h
Spd
kts
Gust
kts
16/11:30pm 13.6 14.2 12.0 90 0.9 CALM 0 0 0 0 1013.2 1013.1 0.2
16/11:00pm 13.8 14.3 11.7 87 1.1 CALM 0 0 0 0 1013.2 1013.1 0.2
16/10:30pm 14.3 14.8 11.6 84 1.4 CALM 0 0 0 0 1013.2 1013.1 0.2
16/10:00pm 17.4 17.6 14.3 82 1.8 ENE 6 7 3 4 1013.0 1012.9 0.2
16/09:30pm 16.8 17.0 13.1 79 2.1 NE 4 6 2 3 1013.0 1012.9 0.2
16/09:00pm 17.6 18.1 13.9 79 2.1 ESE 4 6 2 3 1013.1 1013.0 0.2
16/08:30pm 18.7 19.3 13.1 70 3.2 N 2 7 1 4 1012.4 1012.3 0.2
16/08:00pm 19.6 20.3 13.5 68 3.5 NW 2 7 1 4 1012.4 1012.3 0.2
16/07:30pm 20.9 21.1 14.1 65 4.0 NNE 6 13 3 7 1011.8 1011.7 0.2
16/07:00pm 20.9 20.9 14.3 66 3.9 NNE 7 11 4 6 1011.8 1011.7 0.2
16/06:30pm 21.8 21.9 13.9 61 4.6 E 6 11 3 6 1012.2 1012.1 0.2
16/06:00pm 22.4 22.3 14.0 59 4.9 NNE 7 15 4 8 1011.7 1011.6 0.2
16/05:30pm 22.9 21.6 13.7 56 5.4 NNE 13 20 7 11 1010.8 1010.7 0.2
16/05:00pm 23.6 22.0 14.0 55 5.6 NNE 15 26 8 14 1010.4 1010.3 0.2
16/04:30pm 24.7 22.8 14.2 52 6.2 N 17 32 9 17 1010.3 1010.2 0.2
16/04:00pm 25.9 23.0 12.4 43 7.8 NNE 19 30 10 16 1009.9 1009.8 0.2
16/03:30pm 26.9 24.8 12.5 40 8.4 NNE 15 22 8 12 1010.1 1010.0 0.2
16/03:00pm 27.3 24.9 11.3 37 9.1 NNE 15 22 8 12 1010.0 1009.9 0.2
16/02:30pm 28.3 25.9 10.0 32 10.3 N 13 24 7 13 1010.2 1010.1 0.2
16/02:00pm 28.9 27.0 9.1 29 11.0 NW 9 19 5 10 1010.6 1010.5 0.0
16/01:30pm 28.5 25.5 7.7 27 11.3 NNW 13 20 7 11 1011.2 1011.1 0.0
16/01:00pm 28.1 25.1 9.4 31 10.4 NNW 15 22 8 12 1012.2 1012.1 0.0
16/12:30pm 27.0 24.5 8.4 31 10.1 NW 11 20 6 11 1012.9 1012.8 0.0
16/12:00pm 26.3 23.9 8.8 33 9.5 NNW 11 20 6 11 1013.6 1013.5 0.0
16/11:30am 25.7 23.7 8.7 34 9.2 NW 9 19 5 10 1014.3 1014.2 0.0
16/11:00am 24.5 22.1 8.5 36 8.6 NW 11 22 6 12 1015.0 1014.9 0.0
16/10:30am 24.4 23.0 11.0 43 7.5 NW 9 15 5 8 1015.4 1015.3 0.0
16/10:00am 22.5 21.6 11.3 49 6.2 NW 7 15 4 8 1016.2 1016.1 0.0
16/09:30am 21.8 21.4 12.4 55 5.3 NNW 6 15 3 8 1016.6 1016.5 0.0
16/09:00am 20.1 20.5 13.6 66 3.7 NW 4 7 2 4 1017.2 1017.1 0.0
16/08:30am 18.4 19.7 14.1 76 2.5 CALM 0 2 0 1 1017.3 1017.2 0.0
16/08:00am 15.7 16.8 13.4 86 1.3 CALM 0 0 0 0 1017.3 1017.2 0.0
16/07:30am 13.4 13.6 12.0 91 0.8 S 2 4 1 2 1017.4 1017.3 0.0
16/07:00am 11.6 11.8 10.5 93 0.6 CALM 0 0 0 0 1017.2 1017.1 0.0
16/06:30am 10.7 10.6 9.6 93 0.6 CALM 0 0 0 0 1016.8 1016.7 0.0
16/06:00am 9.7 9.3 8.3 91 0.7 CALM 0 0 0 0 1016.8 1016.7 0.0
16/05:30am 10.6 10.5 9.5 93 0.6 CALM 0 2 0 1 1016.5 1016.4 0.0
16/05:00am 11.6 11.4 10.5 93 0.6 SE 2 4 1 2 1016.4 1016.3 0.0
16/04:30am 11.7 11.6 10.8 94 0.5 SSE 2 6 1 3 1016.2 1016.1 0.0
16/04:00am 11.5 11.7 10.4 93 0.6 CALM 0 4 0 2 1015.9 1015.8 0.0
16/03:30am 11.2 11.2 9.8 91 0.7 CALM 0 2 0 1 1015.7 1015.6 0.0
16/03:00am 11.8 11.6 10.5 92 0.7 SE 2 4 1 2 1015.7 1015.6 0.0
16/02:30am 11.8 12.0 10.4 91 0.7 CALM 0 0 0 0 1015.6 1015.5 0.0
16/02:00am 12.7 13.1 11.3 91 0.7 CALM 0 0 0 0 1015.6 1015.5 0.0
16/01:30am 13.1 13.6 11.7 91 0.7 CALM 0 0 0 0 1015.8 1015.7 0.0
16/01:00am 13.1 13.3 11.7 91 0.7 SSE 2 4 1 2 1016.0 1015.9 0.0
16/12:30am 12.7 12.7 11.1 90 0.8 ESE 2 4 1 2 1016.2 1016.1 0.0
16/12:00am 13.0 12.7 11.4 90 0.8 SSE 4 6 2 3 1016.4 1016.3 0.0
 
Date/Time
EST
Tmp

°C
App
Tmp
°C
Dew
Point
°C
Rel
Hum
%
Delta-T

°C
Wind Press
QNH
hPa
Press
MSL
hPa
Rain
since
9 am
mm
Dir
 
Spd
km/h
Gust
km/h
Spd
kts
Gust
kts
15/11:30pm 13.5 13.8 12.1 91 0.8 SSE 2 4 1 2 1016.5 1016.4 0.0
15/11:00pm 13.0 13.4 11.1 88 1.0 CALM 0 0 0 0 1016.5 1016.4 0.0
15/10:30pm 13.5 13.8 11.0 85 1.3 CALM 0 0 0 0 1016.6 1016.5 0.0
15/10:00pm 14.0 14.4 11.2 83 1.5 CALM 0 0 0 0 1016.7 1016.6 0.0
15/09:30pm 14.6 14.9 10.8 78 2.0 CALM 0 0 0 0 1016.7 1016.6 0.0
15/09:00pm 16.2 17.0 12.7 80 1.9 CALM 0 0 0 0 1016.7 1016.6 0.0
15/08:30pm 15.8 16.0 11.8 77 2.2 SSE 2 4 1 2 1016.6 1016.5 0.0
15/08:00pm 17.1 17.3 12.0 72 2.8 E 2 4 1 2 1016.5 1016.4 0.0
15/07:30pm 18.3 18.3 12.5 69 3.2 E 4 9 2 5 1016.2 1016.1 0.0
15/07:00pm 19.2 18.7 12.2 64 3.9 NE 6 13 3 7 1016.0 1015.9 0.0
15/06:30pm 18.6 18.5 13.2 71 3.1 ENE 6 9 3 5 1015.5 1015.4 0.0
15/06:00pm 18.5 18.3 13.1 71 3.0 ENE 6 9 3 5 1015.0 1014.9 0.0
15/05:30pm 19.4 17.8 12.9 66 3.7 ENE 13 22 7 12 1014.6 1014.5 0.0
15/05:00pm 20.4 17.7 11.6 57 4.9 ENE 17 26 9 14 1014.2 1014.1 0.0
15/04:30pm 21.5 19.4 11.2 52 5.7 SSE 13 19 7 10 1014.5 1014.4 0.0
15/04:00pm 25.1 23.1 10.2 39 8.3 NNE 11 32 6 17 1014.1 1014.0 0.0
15/03:30pm 26.6 24.2 7.1 29 10.3 NNW 9 17 5 9 1013.1 1013.0 0.0
15/03:00pm 27.8 26.6 9.6 32 10.1 NNW 6 13 3 7 1013.1 1013.0 0.0
15/02:30pm 27.4 25.9 9.3 32 10.0 N 7 19 4 10 1013.5 1013.4 0.0
15/02:00pm 27.1 25.4 9.9 34 9.6 N 9 17 5 9 1014.0 1013.9 0.0
15/01:30pm 26.1 24.0 9.9 36 9.0 NNW 11 19 6 10 1014.7 1014.6 0.0
15/01:00pm 26.1 24.5 10.3 37 8.8 N 9 17 5 9 1015.2 1015.1 0.0
15/12:30pm 25.4 23.7 9.7 37 8.6 NNW 9 17 5 9 1015.9 1015.8 0.0
15/12:00pm 25.3 23.5 9.6 37 8.6 NW 9 20 5 11 1016.5 1016.4 0.0
15/11:30am 24.5 23.2 10.0 40 8.0 N 7 17 4 9 1017.2 1017.1 0.0
15/11:00am 23.1 21.7 10.9 46 6.8 NW 9 17 5 9 1017.8 1017.7 0.0
15/10:30am 21.8 20.4 10.9 50 6.0 N 9 15 5 8 1018.4 1018.3 0.0
15/10:00am 21.4 20.8 12.3 56 5.1 NW 7 11 4 6 1019.0 1018.9 0.0
15/09:30am 20.3 19.7 11.8 58 4.7 NNW 6 11 3 6 1019.4 1019.3 0.0
15/09:00am 19.0 19.3 12.3 65 3.7 SSW 2 6 1 3 1019.7 1019.6 0.0
15/08:30am 17.0 18.2 13.7 81 1.9 CALM 0 4 0 2 1019.9 1019.8 0.0
15/08:00am 14.7 15.4 12.2 85 1.4 CALM 0 4 0 2 1020.0 1019.9 0.0
15/07:30am 12.6 12.9 11.0 90 0.8 CALM 0 0 0 0 1019.8 1019.7 0.0
15/07:00am 11.0 11.0 9.9 93 0.6 CALM 0 0 0 0 1019.8 1019.7 0.0
15/06:30am 10.0 9.1 9.1 94 0.4 ENE 4 6 2 3 1019.5 1019.4 0.0
15/06:00am 7.7 6.9 6.5 92 0.5 CALM 0 4 0 2 1019.4 1019.3 0.0
15/05:30am 8.7 8.1 7.6 93 0.5 CALM 0 0 0 0 1018.8 1018.7 0.0
15/05:00am 9.6 9.3 8.7 94 0.4 CALM 0 0 0 0 1018.8 1018.7 0.0
15/04:30am 8.4 7.8 7.2 92 0.6 CALM 0 0 0 0 1018.7 1018.6 0.0
15/04:00am 9.5 8.8 8.4 93 0.5 SSE 2 6 1 3 1018.4 1018.3 0.0
15/03:30am 9.9 9.6 8.8 93 0.5 CALM 0 0 0 0 1018.5 1018.4 0.0
15/03:00am 9.8 9.5 8.6 92 0.6 CALM 0 0 0 0 1018.7 1018.6 0.0
15/02:30am 10.2 9.9 8.6 90 0.8 CALM 0 0 0 0 1018.6 1018.5 0.0
15/02:00am 11.4 11.5 10.1 92 0.7 CALM 0 0 0 0 1018.9 1018.8 0.0
15/01:30am 11.0 10.9 9.4 90 0.8 CALM 0 2 0 1 1019.2 1019.1 0.0
15/01:00am 12.0 11.8 10.4 90 0.8 ESE 2 4 1 2 1019.4 1019.3 0.0
15/12:30am 12.5 12.9 11.1 91 0.7 CALM 0 0 0 0 1019.6 1019.5 0.0
15/12:00am 11.6 11.6 9.7 88 1.0 CALM 0 2 0 1 1019.9 1019.8 0.0
 
Date/Time
EST
Tmp

°C
App
Tmp
°C
Dew
Point
°C
Rel
Hum
%
Delta-T

°C
Wind Press
QNH
hPa
Press
MSL
hPa
Rain
since
9 am
mm
Dir
 
Spd
km/h
Gust
km/h
Spd
kts
Gust
kts
14/11:30pm 12.4 12.2 10.6 89 0.9 E 2 4 1 2 1020.1 1020.0 0.0
14/11:00pm 12.1 12.2 10.2 88 1.0 CALM 0 0 0 0 1020.2 1020.1 0.0
14/10:30pm 12.0 12.2 10.4 90 0.8 CALM 0 0 0 0 1020.3 1020.2 0.0
14/10:00pm 11.9 11.9 9.8 87 1.1 CALM 0 0 0 0 1020.3 1020.2 0.0

Latest Capital City Observations: Canberra | Sydney | Melbourne | Brisbane | Adelaide | Perth | Hobart | Darwin

Other Formats:

Comma delimited format used in spreadsheet applications
http://www.bom.gov.au/fwo/IDQ60901/IDQ60901.95575.axf

JavaScript Object Notation format (JSON) in row-major order
http://www.bom.gov.au/fwo/IDQ60901/IDQ60901.95575.json